Time;durP1;ratioP1;P1;durP2;ratioP2;P2;SDS_P1;SDS_P2;PMS_P1;PMS_P2;Temp;Humidity;BMP_temperature;BMP_pressure;BME280_temperature;BME280_humidity;BME280_pressure;Samples;Min_cycle;Max_cycle;Signal;HPM_P1;HPM_P2
2023/03/26 00:02:18;;;;;;;8.63;2.15;;;;;;;;;;4974358;28;20042;-81
2023/03/26 00:04:45;;;;;;;12.05;2.10;;;;;;;;;;4986674;28;20046;-80
2023/03/26 00:07:14;;;;;;;9.48;1.80;;;;;;;;;;4986515;28;20163;-80
2023/03/26 00:09:41;;;;;;;8.02;1.77;;;;;;;;;;4987225;28;20496;-80
2023/03/26 00:12:09;;;;;;;13.63;2.15;;;;;;;;;;4985675;28;20065;-81
2023/03/26 00:14:39;;;;;;;12.15;1.80;;;;;;;;;;4984229;28;20113;-81
2023/03/26 00:17:16;;;;;;;11.40;2.10;;;;;;;;;;4984695;28;20160;-80
2023/03/26 00:20:08;;;;;;;9.60;2.08;;;;;;;;;;4993714;28;20653;-81
2023/03/26 00:22:35;;;;;;;8.38;1.65;;;;;;;;;;4985487;28;20052;-81
2023/03/26 00:25:05;;;;;;;9.00;2.03;;;;;;;;;;4987023;28;20049;-80
2023/03/26 00:27:33;;;;;;;12.30;2.25;;;;;;;;;;4983730;28;20039;-80
2023/03/26 00:30:02;;;;;;;15.38;2.60;;;;;;;;;;4970318;28;20874;-80
2023/03/26 00:32:30;;;;;;;11.80;2.28;;;;;;;;;;4987250;28;20053;-81
2023/03/26 00:35:23;;;;;;;17.25;2.30;;;;;;;;;;4986000;28;20038;-80
2023/03/26 00:37:52;;;;;;;10.10;2.55;;;;;;;;;;5000044;28;20042;-80
2023/03/26 00:40:25;;;;;;;18.50;3.70;;;;;;;;;;4987548;28;20045;-80
2023/03/26 00:42:53;;;;;;;14.73;2.58;;;;;;;;;;4985822;28;20051;-80
2023/03/26 00:45:22;;;;;;;7.88;1.60;;;;;;;;;;4966067;28;20078;-80
2023/03/26 00:47:55;;;;;;;8.68;1.90;;;;;;;;;;4985135;28;20062;-81
2023/03/26 00:50:25;;;;;;;7.82;1.63;;;;;;;;;;4988291;28;20043;-80
2023/03/26 00:52:54;;;;;;;9.00;3.17;;;;;;;;;;5002008;28;20097;-81
2023/03/26 00:58:49;;;;;;;10.85;1.48;;;;;;;;;;4961385;28;20087;-80
2023/03/26 01:01:25;;;;;;;9.23;1.58;;;;;;;;;;4987818;28;20034;-80
2023/03/26 01:04:19;;;;;;;9.32;1.73;;;;;;;;;;4985567;28;21020;-80
2023/03/26 01:06:47;;;;;;;11.23;1.30;;;;;;;;;;4975265;28;20111;-81
2023/03/26 01:09:22;;;;;;;8.13;2.33;;;;;;;;;;4982930;28;20470;-81
2023/03/26 01:11:51;;;;;;;10.60;2.15;;;;;;;;;;4988110;28;20047;-81
2023/03/26 01:14:22;;;;;;;8.85;1.65;;;;;;;;;;4986350;28;20095;-81
2023/03/26 01:16:58;;;;;;;7.57;1.48;;;;;;;;;;4984893;28;20047;-81
2023/03/26 01:19:44;;;;;;;9.18;1.70;;;;;;;;;;5001477;28;20501;-81
2023/03/26 01:22:20;;;;;;;8.68;1.85;;;;;;;;;;4968459;28;20026;-81
2023/03/26 01:24:52;;;;;;;10.55;2.28;;;;;;;;;;4969665;28;20089;-81
2023/03/26 01:27:47;;;;;;;7.13;1.20;;;;;;;;;;4961856;28;20035;-81
2023/03/26 01:30:36;;;;;;;2.45;1.17;;;;;;;;;;4970992;28;20129;-81
2023/03/26 01:33:13;;;;;;;8.30;1.58;;;;;;;;;;4986290;28;20042;-81
2023/03/26 01:35:55;;;;;;;5.47;1.42;;;;;;;;;;4998796;28;20091;-81
2023/03/26 01:38:30;;;;;;;12.88;1.95;;;;;;;;;;4969706;28;20039;-81
2023/03/26 01:40:59;;;;;;;5.53;1.60;;;;;;;;;;4985628;28;20518;-81
2023/03/26 01:43:36;;;;;;;7.18;1.50;;;;;;;;;;4988126;28;20069;-81
2023/03/26 01:46:06;;;;;;;6.32;1.42;;;;;;;;;;4998305;28;20039;-81
2023/03/26 01:48:42;;;;;;;6.53;1.65;;;;;;;;;;4986978;28;20472;-81
2023/03/26 01:51:34;;;;;;;7.45;1.30;;;;;;;;;;4960380;28;20049;-81
2023/03/26 01:54:04;;;;;;;7.65;1.17;;;;;;;;;;4986120;28;20117;-81
2023/03/26 01:56:41;;;;;;;5.03;1.50;;;;;;;;;;4969600;28;20038;-81
2023/03/26 01:59:31;;;;;;;4.45;1.13;;;;;;;;;;4986300;28;20523;-81
2023/03/26 02:02:11;;;;;;;4.07;0.90;;;;;;;;;;4968549;28;20400;-81
2023/03/26 02:05:33;;;;;;;5.88;1.30;;;;;;;;;;4968485;28;20046;-81
2023/03/26 02:08:34;;;;;;;7.88;1.27;;;;;;;;;;5028956;28;20045;-81
2023/03/26 02:11:04;;;;;;;10.93;1.85;;;;;;;;;;5039707;28;20610;-81
2023/03/26 02:13:58;;;;;;;9.77;1.30;;;;;;;;;;5046216;28;20041;-81
2023/03/26 02:16:25;;;;;;;11.05;1.20;;;;;;;;;;5026978;28;20140;-81
2023/03/26 02:19:20;;;;;;;6.05;1.17;;;;;;;;;;5045801;28;20045;-81
2023/03/26 02:21:58;;;;;;;10.77;1.73;;;;;;;;;;5044790;28;20056;-81
2023/03/26 02:24:27;;;;;;;6.85;1.27;;;;;;;;;;5028013;28;20518;-81
2023/03/26 02:27:21;;;;;;;8.43;1.73;;;;;;;;;;5030978;28;20037;-81
2023/03/26 02:29:54;;;;;;;9.93;1.65;;;;;;;;;;5028288;28;20060;-81
2023/03/26 02:32:23;;;;;;;6.97;1.75;;;;;;;;;;5028617;28;20055;-81
2023/03/26 02:34:55;;;;;;;6.50;1.60;;;;;;;;;;5011715;28;20089;-81
2023/03/26 02:37:23;;;;;;;12.55;1.60;;;;;;;;;;5041972;28;20454;-81
2023/03/26 02:40:03;;;;;;;11.60;1.50;;;;;;;;;;5029596;28;20510;-81
2023/03/26 02:42:31;;;;;;;8.40;1.73;;;;;;;;;;4978842;28;20062;-81
2023/03/26 02:44:59;;;;;;;7.40;1.70;;;;;;;;;;4968744;28;20042;-81
2023/03/26 02:47:45;;;;;;;6.90;1.50;;;;;;;;;;4970136;28;20054;-81
2023/03/26 02:50:35;;;;;;;10.52;1.40;;;;;;;;;;4986703;28;20054;-81
2023/03/26 02:53:29;;;;;;;8.73;1.40;;;;;;;;;;4998762;28;20042;-81
2023/03/26 02:56:21;;;;;;;7.50;1.23;;;;;;;;;;4997909;28;20047;-81
2023/03/26 02:59:13;;;;;;;11.75;1.58;;;;;;;;;;4985108;28;20522;-81
2023/03/26 03:01:45;;;;;;;7.50;1.60;;;;;;;;;;4968690;28;20046;-81
2023/03/26 03:04:16;;;;;;;11.35;2.13;;;;;;;;;;4967123;28;20038;-81
2023/03/26 03:06:45;;;;;;;14.00;1.67;;;;;;;;;;4983183;28;20519;-81
2023/03/26 03:09:13;;;;;;;7.57;1.55;;;;;;;;;;4970632;28;20042;-81
2023/03/26 03:12:41;;;;;;;6.47;1.10;;;;;;;;;;4977095;28;20035;-81
2023/03/26 03:15:09;;;;;;;8.35;1.17;;;;;;;;;;5000641;28;20053;-81
2023/03/26 03:18:01;;;;;;;7.65;1.25;;;;;;;;;;4996254;28;20053;-81
2023/03/26 03:20:34;;;;;;;4.97;1.27;;;;;;;;;;4952959;28;20038;-81
2023/03/26 03:23:09;;;;;;;6.85;1.00;;;;;;;;;;4982740;28;20046;-81
2023/03/26 03:25:39;;;;;;;8.98;1.10;;;;;;;;;;4968800;28;20088;-81
2023/03/26 03:28:14;;;;;;;6.32;1.05;;;;;;;;;;4979030;28;20497;-81
2023/03/26 03:30:41;;;;;;;6.53;1.05;;;;;;;;;;4966041;28;20050;-81
2023/03/26 03:33:35;;;;;;;6.78;1.20;;;;;;;;;;4986050;28;20049;-81
2023/03/26 03:36:09;;;;;;;5.40;1.10;;;;;;;;;;4974672;28;20066;-81
2023/03/26 03:39:04;;;;;;;5.57;1.10;;;;;;;;;;4969345;28;20038;-81
2023/03/26 03:41:36;;;;;;;1.98;0.82;;;;;;;;;;4969970;28;20523;-81
2023/03/26 03:44:09;;;;;;;7.20;0.95;;;;;;;;;;4967363;28;20061;-81
2023/03/26 03:46:37;;;;;;;5.43;1.17;;;;;;;;;;4965254;28;20030;-81
2023/03/26 03:49:05;;;;;;;5.05;1.10;;;;;;;;;;4971536;28;20042;-80
2023/03/26 03:51:37;;;;;;;12.43;1.50;;;;;;;;;;5001756;28;20049;-81
2023/03/26 03:54:13;;;;;;;3.70;1.80;;;;;;;;;;5002326;28;20046;-81
2023/03/26 03:56:47;;;;;;;7.43;0.95;;;;;;;;;;4987819;28;20034;-81
2023/03/26 03:59:48;;;;;;;7.40;1.27;;;;;;;;;;5037591;28;20561;-81
2023/03/26 04:02:24;;;;;;;6.75;1.33;;;;;;;;;;5019237;28;20053;-81
2023/03/26 04:04:57;;;;;;;4.15;0.90;;;;;;;;;;5041367;28;20053;-81
2023/03/26 04:07:27;;;;;;;6.45;1.13;;;;;;;;;;5035613;28;20040;-81
2023/03/26 04:10:08;;;;;;;6.85;1.60;;;;;;;;;;5039745;28;20171;-81
2023/03/26 04:13:12;;;;;;;4.10;1.10;;;;;;;;;;5040367;28;20064;-81
2023/03/26 04:15:59;;;;;;;6.80;1.20;;;;;;;;;;5023131;28;20522;-81
2023/03/26 04:18:29;;;;;;;4.45;1.05;;;;;;;;;;5040870;28;20053;-81
2023/03/26 04:21:02;;;;;;;4.78;0.82;;;;;;;;;;5006478;28;20387;-81
2023/03/26 04:23:35;;;;;;;12.30;1.50;;;;;;;;;;5021105;28;20068;-81
2023/03/26 04:26:15;;;;;;;7.72;1.13;;;;;;;;;;5020430;28;20048;-81
2023/03/26 04:29:05;;;;;;;14.48;1.55;;;;;;;;;;5021923;28;20049;-81
2023/03/26 04:31:57;;;;;;;8.50;1.23;;;;;;;;;;5037499;28;20041;-81
2023/03/26 04:34:25;;;;;;;3.85;1.08;;;;;;;;;;5021428;28;20089;-81
2023/03/26 04:37:05;;;;;;;9.98;1.20;;;;;;;;;;4987762;28;20054;-81
2023/03/26 04:39:39;;;;;;;6.63;1.42;;;;;;;;;;4947954;28;20059;-81
2023/03/26 04:42:32;;;;;;;9.32;1.23;;;;;;;;;;4969999;28;20057;-81
2023/03/26 04:45:13;;;;;;;10.57;1.48;;;;;;;;;;4987675;28;20129;-81
2023/03/26 04:47:41;;;;;;;13.02;1.35;;;;;;;;;;4985503;28;20117;-81
2023/03/26 04:50:10;;;;;;;10.43;1.30;;;;;;;;;;4969881;28;20050;-81
2023/03/26 04:53:27;;;;;;;6.03;1.23;;;;;;;;;;4986422;28;20445;-81
2023/03/26 04:56:39;;;;;;;14.05;1.48;;;;;;;;;;4987826;28;20046;-81
2023/03/26 04:59:33;;;;;;;6.03;1.23;;;;;;;;;;5003356;28;20042;-81
2023/03/26 05:02:04;;;;;;;7.35;1.25;;;;;;;;;;4984509;28;20061;-81
2023/03/26 05:04:42;;;;;;;6.72;0.73;;;;;;;;;;4971472;28;20411;-81
2023/03/26 05:07:16;;;;;;;5.53;0.98;;;;;;;;;;4999732;28;20488;-81
2023/03/26 05:10:00;;;;;;;4.20;1.00;;;;;;;;;;4993861;28;20586;-80
2023/03/26 05:12:37;;;;;;;5.85;0.88;;;;;;;;;;4955455;28;20046;-80
2023/03/26 05:15:10;;;;;;;4.47;0.82;;;;;;;;;;4985811;28;20070;-81
2023/03/26 05:18:03;;;;;;;8.00;1.77;;;;;;;;;;4986196;28;20474;-81
2023/03/26 05:20:37;;;;;;;3.05;0.90;;;;;;;;;;4971230;28;20511;-80
2023/03/26 05:23:11;;;;;;;1.75;0.93;;;;;;;;;;4971008;28;20038;-81
2023/03/26 05:25:45;;;;;;;4.20;0.90;;;;;;;;;;4970821;28;20050;-80
2023/03/26 05:28:26;;;;;;;5.10;0.98;;;;;;;;;;4988004;28;20038;-80
2023/03/26 05:31:22;;;;;;;6.30;1.15;;;;;;;;;;4972955;28;20091;-81
2023/03/26 05:33:53;;;;;;;9.63;1.30;;;;;;;;;;4986980;28;20062;-80
2023/03/26 05:36:21;;;;;;;8.45;1.27;;;;;;;;;;4951302;28;20053;-81
2023/03/26 05:39:15;;;;;;;1.80;0.85;;;;;;;;;;4987112;28;20065;-81
2023/03/26 05:42:06;;;;;;;4.53;1.00;;;;;;;;;;4986493;28;20050;-81
2023/03/26 05:45:14;;;;;;;3.67;0.80;;;;;;;;;;4922902;28;20521;-81
2023/03/26 05:48:22;;;;;;;9.65;1.13;;;;;;;;;;4919567;28;20040;-80
2023/03/26 05:50:50;;;;;;;6.13;1.20;;;;;;;;;;4906602;28;20074;-81
2023/03/26 05:53:26;;;;;;;4.70;0.88;;;;;;;;;;4934660;28;20042;-81
2023/03/26 05:56:17;;;;;;;3.05;0.82;;;;;;;;;;4969671;28;20050;-81
2023/03/26 05:59:09;;;;;;;3.35;1.05;;;;;;;;;;4996394;28;20082;-81
2023/03/26 06:02:05;;;;;;;3.65;1.17;;;;;;;;;;4978174;28;20058;-81
2023/03/26 06:04:39;;;;;;;7.35;1.00;;;;;;;;;;4981425;28;20042;-81
2023/03/26 06:07:33;;;;;;;6.60;1.45;;;;;;;;;;4992213;28;20050;-81
2023/03/26 06:10:16;;;;;;;4.13;1.30;;;;;;;;;;4971704;28;20054;-81
2023/03/26 06:12:50;;;;;;;8.27;1.00;;;;;;;;;;4966334;28;20038;-81
2023/03/26 06:15:19;;;;;;;5.32;1.20;;;;;;;;;;4987428;28;20043;-81
2023/03/26 06:17:53;;;;;;;10.23;1.35;;;;;;;;;;4935390;29;20058;-81
2023/03/26 06:21:10;;;;;;;3.97;0.98;;;;;;;;;;4942367;28;20051;-80
2023/03/26 06:23:50;;;;;;;14.60;1.70;;;;;;;;;;4948510;28;20075;-81
2023/03/26 06:26:39;;;;;;;6.57;1.15;;;;;;;;;;4921623;28;20619;-81
2023/03/26 06:29:25;;;;;;;13.65;1.15;;;;;;;;;;4933819;28;20040;-81
2023/03/26 06:32:21;;;;;;;4.78;1.05;;;;;;;;;;4901325;28;20064;-82
2023/03/26 06:35:05;;;;;;;8.15;1.15;;;;;;;;;;4944466;28;20118;-81
2023/03/26 06:37:57;;;;;;;4.25;1.30;;;;;;;;;;4921066;28;20652;-81
2023/03/26 06:40:49;;;;;;;6.65;1.50;;;;;;;;;;4937789;28;20043;-81
2023/03/26 06:43:37;;;;;;;8.15;1.35;;;;;;;;;;4938476;28;20135;-81
2023/03/26 06:46:37;;;;;;;13.82;2.60;;;;;;;;;;4965111;28;20141;-81
2023/03/26 06:49:51;;;;;;;6.93;1.20;;;;;;;;;;4968511;28;20050;-81
2023/03/26 06:52:39;;;;;;;7.22;1.50;;;;;;;;;;4979814;28;20058;-81
2023/03/26 06:55:25;;;;;;;11.35;1.67;;;;;;;;;;4980757;28;20067;-81
2023/03/26 06:58:12;;;;;;;11.60;1.67;;;;;;;;;;4977739;28;20062;-81
2023/03/26 07:01:05;;;;;;;11.40;1.33;;;;;;;;;;4940517;28;20082;-83
2023/03/26 07:04:09;;;;;;;13.95;1.15;;;;;;;;;;4956061;28;20047;-82
2023/03/26 07:06:55;;;;;;;9.90;1.83;;;;;;;;;;4952630;28;20062;-82
2023/03/26 07:09:41;;;;;;;9.90;1.50;;;;;;;;;;4945852;28;20067;-80
2023/03/26 07:12:27;;;;;;;14.88;1.95;;;;;;;;;;4935519;29;20059;-82
2023/03/26 07:15:29;;;;;;;6.70;1.50;;;;;;;;;;4927583;29;20511;-82
2023/03/26 07:18:15;;;;;;;9.43;1.65;;;;;;;;;;4925424;29;20457;-82
2023/03/26 07:20:46;;;;;;;8.45;1.15;;;;;;;;;;4922901;29;20043;-82
2023/03/26 07:23:18;;;;;;;9.73;1.60;;;;;;;;;;4932938;29;20051;-82
2023/03/26 07:25:57;;;;;;;6.63;1.25;;;;;;;;;;4950679;29;20106;-82
2023/03/26 07:29:25;;;;;;;7.75;1.63;;;;;;;;;;4950300;28;20086;-81
2023/03/26 07:32:38;;;;;;;15.88;1.58;;;;;;;;;;4949220;28;20051;-81
2023/03/26 07:35:37;;;;;;;8.40;1.88;;;;;;;;;;4947922;28;20097;-82
2023/03/26 07:38:37;;;;;;;12.63;1.60;;;;;;;;;;4965939;28;20041;-82
2023/03/26 07:41:30;;;;;;;8.40;1.60;;;;;;;;;;5007519;28;20038;-82
2023/03/26 07:44:29;;;;;;;13.75;2.55;;;;;;;;;;5005161;28;20088;-82
2023/03/26 07:47:27;;;;;;;13.95;1.77;;;;;;;;;;5006739;28;20480;-82
2023/03/26 07:50:16;;;;;;;7.80;1.35;;;;;;;;;;4992419;28;20054;-82
2023/03/26 07:53:01;;;;;;;17.80;2.00;;;;;;;;;;4967834;28;20576;-81
2023/03/26 07:56:04;;;;;;;9.57;1.65;;;;;;;;;;5015802;28;20050;-81
2023/03/26 07:59:04;;;;;;;10.20;1.52;;;;;;;;;;4935991;28;20051;-82
2023/03/26 08:01:55;;;;;;;8.65;1.90;;;;;;;;;;4853746;29;20230;-82
2023/03/26 08:04:45;;;;;;;10.50;2.72;;;;;;;;;;4841034;29;20061;-82
2023/03/26 08:08:07;;;;;;;7.88;2.45;;;;;;;;;;4854189;29;20061;-82
2023/03/26 08:11:08;;;;;;;18.88;2.00;;;;;;;;;;4853104;29;20064;-82
2023/03/26 08:14:04;;;;;;;10.40;1.52;;;;;;;;;;4837753;29;20057;-82
2023/03/26 08:16:53;;;;;;;13.55;1.75;;;;;;;;;;4846030;29;20560;-82
2023/03/26 08:19:37;;;;;;;7.03;1.33;;;;;;;;;;4856191;29;20090;-80
2023/03/26 08:22:19;;;;;;;11.13;2.15;;;;;;;;;;4853828;29;20511;-81
2023/03/26 08:25:18;;;;;;;13.45;1.80;;;;;;;;;;4839065;29;20540;-81
2023/03/26 08:27:51;;;;;;;14.25;2.95;;;;;;;;;;4838980;29;20052;-81
2023/03/26 08:30:22;;;;;;;7.68;1.50;;;;;;;;;;4853641;29;20053;-81
2023/03/26 08:33:12;;;;;;;7.55;1.50;;;;;;;;;;4892585;29;20058;-81
2023/03/26 08:35:46;;;;;;;11.25;2.38;;;;;;;;;;4950863;28;20145;-81
2023/03/26 08:38:18;;;;;;;11.20;1.85;;;;;;;;;;4970735;28;20042;-81
2023/03/26 08:41:25;;;;;;;8.45;1.58;;;;;;;;;;4989577;28;20474;-81
2023/03/26 08:44:30;;;;;;;17.77;1.50;;;;;;;;;;4956743;28;20056;-81
2023/03/26 08:47:54;;;;;;;15.00;2.28;;;;;;;;;;4970320;28;20042;-81
2023/03/26 08:50:51;;;;;;;16.00;2.13;;;;;;;;;;5044417;28;20048;-81
2023/03/26 08:53:34;;;;;;;13.70;1.85;;;;;;;;;;5044431;28;20075;-81
2023/03/26 08:56:41;;;;;;;9.50;1.95;;;;;;;;;;5045498;28;20048;-81
2023/03/26 08:59:26;;;;;;;10.20;2.28;;;;;;;;;;5046726;28;20045;-81
2023/03/26 09:02:25;;;;;;;9.27;1.58;;;;;;;;;;5045734;28;20660;-81
2023/03/26 09:05:15;;;;;;;5.60;1.33;;;;;;;;;;5023208;28;20684;-81
2023/03/26 09:08:27;;;;;;;13.18;1.73;;;;;;;;;;5041934;28;20148;-81
2023/03/26 09:11:39;;;;;;;9.00;1.35;;;;;;;;;;5044063;28;20769;-82
2023/03/26 09:14:23;;;;;;;12.35;1.90;;;;;;;;;;5043854;28;20661;-81
2023/03/26 09:17:00;;;;;;;9.60;1.70;;;;;;;;;;5031290;28;20076;-81
2023/03/26 09:19:56;;;;;;;9.93;1.60;;;;;;;;;;5043522;28;20690;-81
2023/03/26 09:22:31;;;;;;;16.38;1.90;;;;;;;;;;5001291;28;20125;-81
2023/03/26 09:25:34;;;;;;;6.50;1.55;;;;;;;;;;4994155;28;20255;-80
2023/03/26 09:28:32;;;;;;;13.02;1.63;;;;;;;;;;4983329;28;20041;-81
2023/03/26 09:31:11;;;;;;;10.27;2.00;;;;;;;;;;4959518;28;20070;-81
2023/03/26 09:34:14;;;;;;;7.18;1.75;;;;;;;;;;4987996;28;20047;-81
2023/03/26 09:36:54;;;;;;;9.90;1.85;;;;;;;;;;4989220;28;20164;-81
2023/03/26 09:39:49;;;;;;;9.32;1.80;;;;;;;;;;4928279;28;20055;-81
2023/03/26 09:42:29;;;;;;;13.10;1.95;;;;;;;;;;4926217;28;20143;-81
2023/03/26 09:45:07;;;;;;;13.07;2.03;;;;;;;;;;4921540;28;20089;-81
2023/03/26 09:48:04;;;;;;;12.27;1.98;;;;;;;;;;4925736;28;20047;-81
2023/03/26 09:51:01;;;;;;;12.30;1.63;;;;;;;;;;4925375;28;20047;-81
2023/03/26 09:53:58;;;;;;;10.45;1.83;;;;;;;;;;4922343;28;20340;-81
2023/03/26 09:56:51;;;;;;;8.55;2.05;;;;;;;;;;4903321;29;20044;-81
2023/03/26 09:59:33;;;;;;;6.97;1.70;;;;;;;;;;4926385;28;20052;-81
2023/03/26 10:02:17;;;;;;;10.20;1.83;;;;;;;;;;4908062;28;20512;-81
2023/03/26 10:05:50;;;;;;;9.50;1.60;;;;;;;;;;4927223;28;20036;-81
2023/03/26 10:08:29;;;;;;;9.35;1.77;;;;;;;;;;4943960;28;20561;-81
2023/03/26 10:11:36;;;;;;;14.70;1.92;;;;;;;;;;4925640;28;20544;-82
2023/03/26 10:14:41;;;;;;;15.70;2.17;;;;;;;;;;4945574;28;20078;-82
2023/03/26 10:17:24;;;;;;;10.32;1.75;;;;;;;;;;4977697;28;20038;-82
2023/03/26 10:20:10;;;;;;;10.65;2.10;;;;;;;;;;4958800;28;20046;-82
2023/03/26 10:22:54;;;;;;;16.58;1.98;;;;;;;;;;4986201;28;20049;-81
2023/03/26 10:26:17;;;;;;;11.73;2.17;;;;;;;;;;4986403;28;20046;-81
2023/03/26 10:29:33;;;;;;;21.77;1.90;;;;;;;;;;4926767;28;20520;-82
2023/03/26 10:32:34;;;;;;;13.63;1.63;;;;;;;;;;4924041;28;20048;-81
2023/03/26 10:35:39;;;;;;;7.28;1.38;;;;;;;;;;4925273;29;20048;-82
2023/03/26 10:38:23;;;;;;;11.50;1.63;;;;;;;;;;4964881;28;20051;-79
2023/03/26 10:41:04;;;;;;;10.45;1.80;;;;;;;;;;4913619;28;20052;-79
2023/03/26 10:44:02;;;;;;;10.15;1.50;;;;;;;;;;4909435;28;20138;-79
2023/03/26 10:47:40;;;;;;;10.32;1.70;;;;;;;;;;4897525;28;20676;-79
2023/03/26 10:50:29;;;;;;;15.10;2.30;;;;;;;;;;4924070;28;20048;-79
2023/03/26 10:53:10;;;;;;;10.00;1.75;;;;;;;;;;4923720;28;20039;-79
2023/03/26 10:55:40;;;;;;;11.82;1.58;;;;;;;;;;4921573;28;20066;-79
2023/03/26 10:58:23;;;;;;;5.97;1.50;;;;;;;;;;4886192;28;20140;-79
2023/03/26 11:01:01;;;;;;;9.05;1.95;;;;;;;;;;4920767;28;20043;-79
2023/03/26 11:03:54;;;;;;;10.90;1.83;;;;;;;;;;4936796;28;20081;-82
2023/03/26 11:06:40;;;;;;;10.45;1.60;;;;;;;;;;4962895;28;20049;-81
2023/03/26 11:09:15;;;;;;;11.80;1.48;;;;;;;;;;4984080;28;20121;-81
2023/03/26 11:11:55;;;;;;;11.80;1.73;;;;;;;;;;4975474;28;20057;-83
2023/03/26 11:15:12;;;;;;;9.35;1.80;;;;;;;;;;4981441;28;20045;-81
2023/03/26 11:17:57;;;;;;;6.32;1.27;;;;;;;;;;4984693;28;20042;-82
2023/03/26 11:21:07;;;;;;;8.32;1.38;;;;;;;;;;4985640;28;20512;-81
2023/03/26 11:24:27;;;;;;;7.50;1.52;;;;;;;;;;4983915;28;20114;-82
2023/03/26 11:27:13;;;;;;;13.57;1.40;;;;;;;;;;4966171;28;20043;-82
2023/03/26 11:30:09;;;;;;;9.50;1.13;;;;;;;;;;4966179;28;20052;-80
2023/03/26 11:33:05;;;;;;;13.88;1.92;;;;;;;;;;4944939;28;20034;-80
2023/03/26 11:35:41;;;;;;;16.90;1.65;;;;;;;;;;4983850;28;20813;-80
2023/03/26 11:38:25;;;;;;;9.07;1.55;;;;;;;;;;4966209;28;20401;-79
2023/03/26 11:40:56;;;;;;;12.10;1.73;;;;;;;;;;4984237;28;21827;-79
2023/03/26 11:44:04;;;;;;;11.63;2.13;;;;;;;;;;4972226;28;20050;-79
2023/03/26 11:46:37;;;;;;;12.07;1.90;;;;;;;;;;4965325;28;20035;-80
2023/03/26 11:49:10;;;;;;;10.35;1.65;;;;;;;;;;4985476;28;20088;-79
2023/03/26 11:51:38;;;;;;;10.27;1.80;;;;;;;;;;4984456;28;20500;-79
2023/03/26 11:54:11;;;;;;;9.82;1.48;;;;;;;;;;4968519;28;20121;-79
2023/03/26 11:56:56;;;;;;;10.60;2.20;;;;;;;;;;4984163;28;20103;-80
2023/03/26 11:59:50;;;;;;;8.50;1.25;;;;;;;;;;4985009;28;20038;-80
2023/03/26 12:02:40;;;;;;;9.93;1.50;;;;;;;;;;4987764;28;20157;-79
2023/03/26 12:05:47;;;;;;;10.52;1.50;;;;;;;;;;5000103;28;20874;-80
2023/03/26 12:08:27;;;;;;;8.57;1.98;;;;;;;;;;4967212;28;20447;-80
2023/03/26 12:11:11;;;;;;;7.47;1.40;;;;;;;;;;5001256;28;20047;-79
2023/03/26 12:13:43;;;;;;;10.13;1.42;;;;;;;;;;4986532;28;20069;-79
2023/03/26 12:16:15;;;;;;;16.15;1.40;;;;;;;;;;4983349;28;20034;-79
2023/03/26 12:18:45;;;;;;;8.95;1.50;;;;;;;;;;4989724;28;20038;-80
2023/03/26 12:21:18;;;;;;;10.15;1.85;;;;;;;;;;4984029;28;20043;-80
2023/03/26 12:24:04;;;;;;;13.70;1.80;;;;;;;;;;4984194;28;20474;-79
2023/03/26 12:26:43;;;;;;;15.15;1.85;;;;;;;;;;4968554;28;20042;-79
2023/03/26 12:29:14;;;;;;;13.82;1.73;;;;;;;;;;4982751;28;20046;-80
2023/03/26 12:32:13;;;;;;;7.70;1.63;;;;;;;;;;4992043;28;20034;-80
2023/03/26 12:34:42;;;;;;;8.88;1.50;;;;;;;;;;4986545;28;20050;-79
2023/03/26 12:37:39;;;;;;;8.73;1.50;;;;;;;;;;5000624;28;20038;-79
2023/03/26 12:40:26;;;;;;;8.45;1.67;;;;;;;;;;4968286;28;20117;-79
2023/03/26 12:43:02;;;;;;;7.07;1.55;;;;;;;;;;4985001;28;20070;-79
2023/03/26 12:45:54;;;;;;;7.25;2.20;;;;;;;;;;4986822;28;20043;-80
2023/03/26 12:48:41;;;;;;;10.43;1.45;;;;;;;;;;4986382;28;20050;-79
2023/03/26 12:51:57;;;;;;;10.52;2.28;;;;;;;;;;4991731;28;20047;-79
2023/03/26 12:55:03;;;;;;;12.95;1.63;;;;;;;;;;4963081;28;20058;-79
2023/03/26 12:58:04;;;;;;;8.02;1.70;;;;;;;;;;4982630;28;20033;-79
2023/03/26 13:01:01;;;;;;;11.20;1.77;;;;;;;;;;4999731;28;20043;-79
2023/03/26 13:03:46;;;;;;;6.65;1.52;;;;;;;;;;4983071;28;20043;-79
2023/03/26 13:06:29;;;;;;;8.98;1.80;;;;;;;;;;4998374;28;20066;-79
2023/03/26 13:09:33;;;;;;;10.68;1.80;;;;;;;;;;4986893;28;20031;-79
2023/03/26 13:12:04;;;;;;;10.73;1.70;;;;;;;;;;4998196;28;20069;-83
2023/03/26 13:14:55;;;;;;;9.80;1.75;;;;;;;;;;4987954;28;20412;-78
2023/03/26 13:17:45;;;;;;;9.95;1.73;;;;;;;;;;4965559;28;20061;-80
2023/03/26 13:20:40;;;;;;;7.53;1.48;;;;;;;;;;4976563;28;20038;-80
2023/03/26 13:23:32;;;;;;;7.03;1.50;;;;;;;;;;4956015;28;20050;-80
2023/03/26 13:26:11;;;;;;;8.93;1.70;;;;;;;;;;4992525;28;20065;-80
2023/03/26 13:28:51;;;;;;;15.13;1.92;;;;;;;;;;4993227;28;20294;-80
2023/03/26 13:31:52;;;;;;;6.97;1.55;;;;;;;;;;4949973;28;20435;-80
2023/03/26 13:35:23;;;;;;;6.88;2.00;;;;;;;;;;4984084;28;20040;-80
2023/03/26 13:38:03;;;;;;;9.73;1.60;;;;;;;;;;4975785;28;20069;-80
2023/03/26 13:40:51;;;;;;;11.98;1.92;;;;;;;;;;4975373;28;20095;-80
2023/03/26 13:43:25;;;;;;;8.30;1.92;;;;;;;;;;4978377;28;20116;-81
2023/03/26 13:46:18;;;;;;;9.65;1.48;;;;;;;;;;4985031;28;20038;-81
2023/03/26 13:49:09;;;;;;;14.85;2.33;;;;;;;;;;4977964;28;20066;-80
2023/03/26 13:51:59;;;;;;;11.02;1.73;;;;;;;;;;4978799;28;20093;-80
2023/03/26 13:54:36;;;;;;;7.85;1.30;;;;;;;;;;4967530;28;20062;-81
2023/03/26 13:57:11;;;;;;;5.35;1.40;;;;;;;;;;4983192;28;20041;-81
2023/03/26 13:59:46;;;;;;;11.35;2.00;;;;;;;;;;5000848;28;20469;-81
2023/03/26 14:02:29;;;;;;;11.70;2.33;;;;;;;;;;4969872;28;20042;-80
2023/03/26 14:05:20;;;;;;;6.72;1.60;;;;;;;;;;4982670;28;20043;-80
2023/03/26 14:07:56;;;;;;;10.07;1.83;;;;;;;;;;4969172;28;20057;-80
2023/03/26 14:10:29;;;;;;;10.38;1.60;;;;;;;;;;4985545;28;20042;-80
2023/03/26 14:13:15;;;;;;;7.20;1.40;;;;;;;;;;4969671;28;20488;-80
2023/03/26 14:16:17;;;;;;;7.30;1.40;;;;;;;;;;4962416;28;20125;-80
2023/03/26 14:18:55;;;;;;;8.10;1.50;;;;;;;;;;4982802;28;20066;-80
2023/03/26 14:21:54;;;;;;;5.80;1.92;;;;;;;;;;4996542;28;20038;-80
2023/03/26 14:24:45;;;;;;;6.78;1.65;;;;;;;;;;5001475;28;20131;-80
2023/03/26 14:27:20;;;;;;;13.00;1.92;;;;;;;;;;4986076;28;20038;-80
2023/03/26 14:29:53;;;;;;;7.95;1.50;;;;;;;;;;5001391;28;20407;-80
2023/03/26 14:32:42;;;;;;;13.75;2.10;;;;;;;;;;4983115;28;20053;-80
2023/03/26 14:35:27;;;;;;;11.98;2.10;;;;;;;;;;4970040;28;20127;-80
2023/03/26 14:38:47;;;;;;;11.23;2.25;;;;;;;;;;4980210;28;20054;-80
2023/03/26 14:41:55;;;;;;;9.30;1.42;;;;;;;;;;5006447;28;20138;-81
2023/03/26 14:44:35;;;;;;;6.47;1.73;;;;;;;;;;5011498;28;20038;-81
2023/03/26 14:48:01;;;;;;;10.95;1.80;;;;;;;;;;5009780;28;20141;-80
2023/03/26 14:50:53;;;;;;;11.35;1.80;;;;;;;;;;5012670;28;20092;-80
2023/03/26 14:53:34;;;;;;;9.18;1.52;;;;;;;;;;4995516;28;20066;-80
2023/03/26 14:56:13;;;;;;;6.13;1.75;;;;;;;;;;5028544;28;20447;-80
2023/03/26 14:59:02;;;;;;;6.15;1.52;;;;;;;;;;5020921;28;20072;-80
2023/03/26 15:01:59;;;;;;;8.63;1.30;;;;;;;;;;5013040;28;20114;-80
2023/03/26 15:04:51;;;;;;;10.98;1.70;;;;;;;;;;4997681;28;20054;-81
2023/03/26 15:07:50;;;;;;;6.40;1.33;;;;;;;;;;5029244;28;20069;-80
2023/03/26 15:10:38;;;;;;;10.77;1.70;;;;;;;;;;5027692;28;20057;-81
2023/03/26 15:13:38;;;;;;;11.80;1.50;;;;;;;;;;4987177;28;20066;-81
2023/03/26 15:16:15;;;;;;;10.25;2.10;;;;;;;;;;4983952;28;20045;-80
2023/03/26 15:19:10;;;;;;;11.57;1.95;;;;;;;;;;4974407;28;20130;-81
2023/03/26 15:22:01;;;;;;;10.35;1.48;;;;;;;;;;4982265;28;20038;-81
2023/03/26 15:24:41;;;;;;;10.95;1.52;;;;;;;;;;4983824;28;20042;-81
2023/03/26 15:27:23;;;;;;;10.95;1.77;;;;;;;;;;4986527;28;20073;-81
2023/03/26 15:30:28;;;;;;;10.80;1.25;;;;;;;;;;4984971;28;20043;-81
2023/03/26 15:33:37;;;;;;;5.13;1.27;;;;;;;;;;4982092;28;20037;-81
2023/03/26 15:36:14;;;;;;;8.60;1.52;;;;;;;;;;4986539;28;20038;-81
2023/03/26 15:39:04;;;;;;;14.05;2.80;;;;;;;;;;5002126;28;20481;-80
2023/03/26 15:45:07;;;;;;;9.07;1.38;;;;;;;;;;4988452;28;20318;-81
2023/03/26 15:48:00;;;;;;;5.95;1.35;;;;;;;;;;4926022;28;20060;-81
2023/03/26 15:51:23;;;;;;;4.60;1.10;;;;;;;;;;4935788;28;20039;-80
2023/03/26 15:53:53;;;;;;;9.32;1.00;;;;;;;;;;4969335;28;20055;-80
2023/03/26 15:56:33;;;;;;;8.52;1.85;;;;;;;;;;4969864;28;20058;-81
2023/03/26 15:59:16;;;;;;;6.47;1.33;;;;;;;;;;4969738;28;20055;-81
2023/03/26 16:01:46;;;;;;;10.38;1.50;;;;;;;;;;4968461;28;20086;-80
2023/03/26 16:04:37;;;;;;;7.05;1.40;;;;;;;;;;4968457;28;20055;-80
2023/03/26 16:07:29;;;;;;;9.90;1.25;;;;;;;;;;4969916;28;20043;-81
2023/03/26 16:10:46;;;;;;;12.85;1.80;;;;;;;;;;4948781;28;20057;-81
2023/03/26 16:13:43;;;;;;;8.60;1.30;;;;;;;;;;4956485;28;20125;-80
2023/03/26 16:16:56;;;;;;;10.85;1.45;;;;;;;;;;4937098;28;20082;-81
2023/03/26 16:19:52;;;;;;;12.57;1.88;;;;;;;;;;4954080;28;20034;-80
2023/03/26 16:23:05;;;;;;;10.10;1.85;;;;;;;;;;4936843;28;20050;-80
2023/03/26 16:25:59;;;;;;;9.73;1.40;;;;;;;;;;4986094;28;20080;-81
2023/03/26 16:28:33;;;;;;;8.38;1.45;;;;;;;;;;5003207;28;20065;-81
2023/03/26 16:31:22;;;;;;;7.78;1.77;;;;;;;;;;4993413;28;20074;-81
2023/03/26 16:34:07;;;;;;;11.55;1.58;;;;;;;;;;4969868;28;20053;-81
2023/03/26 16:36:59;;;;;;;8.50;1.77;;;;;;;;;;4990326;28;20042;-81
2023/03/26 16:39:39;;;;;;;11.35;1.83;;;;;;;;;;4968899;28;20030;-80